createdAt,value
2018-04-11T06:33:09.084Z,12.63
2018-04-11T06:35:36.637Z,12.00
2018-04-11T06:38:04.097Z,9.87
2018-04-11T06:40:31.565Z,9.67
2018-04-11T06:42:59.445Z,9.23
2018-04-11T06:45:27.780Z,8.20
2018-04-11T06:47:55.248Z,6.10
2018-04-11T06:50:22.713Z,6.87
2018-04-11T06:52:50.273Z,5.97
2018-04-11T06:55:17.854Z,6.27
2018-04-11T06:57:46.548Z,5.53
2018-04-11T07:00:14.800Z,5.43
2018-04-11T07:02:42.465Z,5.40
2018-04-11T07:05:09.925Z,4.93
2018-04-11T07:07:37.381Z,4.37
2018-04-11T07:10:04.830Z,3.70
2018-04-11T07:12:32.395Z,4.10
2018-04-11T07:15:00.797Z,3.70
2018-04-11T07:17:29.588Z,4.20
2018-04-11T07:19:57.819Z,4.53
2018-04-11T07:22:25.261Z,4.93
2018-04-11T07:24:52.718Z,6.83
2018-04-11T07:27:20.649Z,4.67
2018-04-11T07:29:49.925Z,3.80
2018-04-11T07:32:18.145Z,6.40
2018-04-11T07:34:45.613Z,4.57
2018-04-11T07:37:13.061Z,5.07
2018-04-11T07:39:40.525Z,4.63
2018-04-11T07:42:08.177Z,4.90
2018-04-11T07:44:35.641Z,5.20
2018-04-11T07:47:03.092Z,4.73
2018-04-11T07:49:31.325Z,5.37
2018-04-11T07:51:58.774Z,4.63
2018-04-11T07:54:26.695Z,4.50
2018-04-11T07:56:54.204Z,4.93
2018-04-11T07:59:21.837Z,4.37
2018-04-11T08:01:49.288Z,5.57
2018-04-11T08:04:16.744Z,4.93
2018-04-11T08:06:44.206Z,5.40
2018-04-11T08:09:11.657Z,5.60
2018-04-11T08:11:39.104Z,6.87
2018-04-11T08:14:06.567Z,5.43
2018-04-11T08:16:34.021Z,6.10
2018-04-11T08:19:01.470Z,6.17
2018-04-11T08:21:29.706Z,5.97
2018-04-11T08:23:56.656Z,5.87
2018-04-11T08:26:24.108Z,5.73
2018-04-11T08:28:52.520Z,6.03
2018-04-11T08:31:20.740Z,5.93
2018-04-11T08:33:48.317Z,6.00
2018-04-11T08:36:15.792Z,5.70
2018-04-11T08:38:42.765Z,6.17
2018-04-11T08:41:11.800Z,4.83
2018-04-11T08:43:39.898Z,6.20
2018-04-11T08:46:08.069Z,5.73
2018-04-11T08:48:35.645Z,5.20
2018-04-11T08:51:03.199Z,6.37
2018-04-11T08:53:31.305Z,6.10
2018-04-11T08:56:00.337Z,5.43
2018-04-11T08:58:27.796Z,4.90
2018-04-11T09:00:55.552Z,4.67
2018-04-11T09:03:23.017Z,4.60
2018-04-11T09:05:50.617Z,4.60
2018-04-11T09:08:18.070Z,4.50
2018-04-11T09:10:46.484Z,5.17
2018-04-11T09:13:14.710Z,4.90
2018-04-11T09:15:42.167Z,4.43
2018-04-11T09:18:10.301Z,4.37
2018-04-11T09:20:38.356Z,4.80
2018-04-11T09:23:06.781Z,5.00
2018-04-11T09:25:34.229Z,4.70
2018-04-11T09:28:01.711Z,4.23
2018-04-11T09:30:29.817Z,4.60
2018-04-11T09:32:57.721Z,3.77
2018-04-11T09:35:25.224Z,4.30
2018-04-11T09:37:52.720Z,4.53
2018-04-11T09:40:20.480Z,4.70
2018-04-11T09:42:48.717Z,4.93
2018-04-11T09:45:16.165Z,4.17
2018-04-11T09:47:44.311Z,4.67
2018-04-11T09:50:11.764Z,5.00
2018-04-11T09:52:39.216Z,5.07
2018-04-11T09:55:06.681Z,5.23
2018-04-11T09:57:34.145Z,4.80
2018-04-11T10:00:01.597Z,6.30
2018-04-11T10:02:29.045Z,5.60
2018-04-11T10:04:57.289Z,6.87
2018-04-11T10:07:24.785Z,6.20
2018-04-11T10:09:53.001Z,7.00
2018-04-11T10:12:22.525Z,6.00
2018-04-11T10:14:50.593Z,5.97
2018-04-11T10:17:18.154Z,6.50
2018-04-11T10:19:46.133Z,5.40
2018-04-11T10:22:13.589Z,5.07
2018-04-11T10:24:41.090Z,5.30
2018-04-11T10:27:08.548Z,6.33
2018-04-11T10:29:36.485Z,5.40
2018-04-11T10:32:04.356Z,5.33
2018-04-11T10:34:32.628Z,4.67
2018-04-11T10:37:00.916Z,4.70
2018-04-11T10:39:29.773Z,5.10
2018-04-11T10:41:57.246Z,4.80
2018-04-11T10:44:24.697Z,4.50
2018-04-11T10:46:52.177Z,4.60
2018-04-11T10:49:19.628Z,5.30
2018-04-11T10:51:47.084Z,4.67
2018-04-11T10:54:14.532Z,5.03
2018-04-11T10:56:42.089Z,5.40
2018-04-11T10:59:10.007Z,4.87
2018-04-11T11:01:37.461Z,5.10
2018-04-11T11:04:05.545Z,5.20
2018-04-11T11:06:33.048Z,4.60
2018-04-11T11:09:00.504Z,5.30
2018-04-11T11:11:27.962Z,5.00
2018-04-11T11:13:55.409Z,5.10
2018-04-11T11:16:22.873Z,5.10
2018-04-11T11:18:50.924Z,6.10
2018-04-11T11:21:18.591Z,5.57
2018-04-11T11:23:46.652Z,5.80
2018-04-11T11:26:14.108Z,7.33
2018-04-11T11:28:41.570Z,5.40
2018-04-11T11:31:09.028Z,5.40
2018-04-11T11:33:36.480Z,5.00
2018-04-11T11:36:04.437Z,5.00
2018-04-11T11:38:32.396Z,4.67
2018-04-11T11:41:00.631Z,5.53
2018-04-11T11:43:28.960Z,5.53
2018-04-11T11:45:56.445Z,5.57
2018-04-11T11:48:23.881Z,5.90
2018-04-11T11:50:51.343Z,5.03
2018-04-11T11:53:19.509Z,4.80
2018-04-11T11:55:46.964Z,4.53
2018-04-11T11:58:14.412Z,3.90
2018-04-11T12:00:43.338Z,4.30
2018-04-11T12:03:11.341Z,4.30
2018-04-11T12:05:38.792Z,3.70
2018-04-11T12:08:06.248Z,3.97
2018-04-11T12:10:34.952Z,4.57
2018-04-11T12:13:02.401Z,4.10
2018-04-11T12:15:29.950Z,3.87
2018-04-11T12:17:57.768Z,3.30
2018-04-11T12:20:25.221Z,4.00
2018-04-11T12:22:53.445Z,4.20
2018-04-11T12:25:20.897Z,4.27
2018-04-11T12:27:48.576Z,3.60
2018-04-11T12:30:16.029Z,3.63
2018-04-11T12:32:43.549Z,3.53
2018-04-11T12:35:11.817Z,3.60
2018-04-11T12:37:40.769Z,3.73
2018-04-11T12:40:08.221Z,3.73
2018-04-11T12:42:36.009Z,4.60
2018-04-11T12:45:03.470Z,3.23
2018-04-11T12:47:30.924Z,3.27
2018-04-11T12:49:58.381Z,4.80
2018-04-11T12:52:26.644Z,4.00
2018-04-11T12:54:54.097Z,3.83
2018-04-11T12:57:21.725Z,3.40
2018-04-11T12:59:49.416Z,4.20
2018-04-11T13:02:17.197Z,4.17
2018-04-11T13:04:44.652Z,4.13
2018-04-11T13:07:12.949Z,4.00
2018-04-11T13:09:42.541Z,5.97
2018-04-11T13:12:10.009Z,3.77
2018-04-11T13:14:37.472Z,3.93
2018-04-11T13:17:05.692Z,3.30
2018-04-11T13:19:33.147Z,3.40
2018-04-11T13:22:00.604Z,3.97
2018-04-11T13:24:28.209Z,4.17
2018-04-11T13:26:55.977Z,3.97
2018-04-11T13:29:23.433Z,3.90
2018-04-11T13:31:51.202Z,3.70
2018-04-11T13:34:18.661Z,3.73
2018-04-11T13:36:46.825Z,4.07
2018-04-11T13:39:14.317Z,3.90
2018-04-11T13:41:42.538Z,3.97
2018-04-11T13:44:10.013Z,3.40
2018-04-11T13:46:37.456Z,3.90
2018-04-11T13:49:05.343Z,3.77
2018-04-11T13:51:32.799Z,3.53
2018-04-11T13:54:00.544Z,2.90
2018-04-11T13:56:28.013Z,3.83
2018-04-11T13:58:56.528Z,3.60
2018-04-11T14:01:23.984Z,3.57
2018-04-11T14:03:52.145Z,3.53
2018-04-11T14:06:20.864Z,3.87
2018-04-11T14:08:49.836Z,4.10
2018-04-11T14:11:17.710Z,3.13
2018-04-11T14:13:45.246Z,4.20
2018-04-11T14:16:13.487Z,4.33
2018-04-11T14:18:40.985Z,3.97
2018-04-11T14:21:09.161Z,4.10
2018-04-11T14:23:37.614Z,3.40
2018-04-11T14:26:05.065Z,3.97
2018-04-11T14:28:32.517Z,3.60
2018-04-11T14:31:00.017Z,3.17
2018-04-11T14:33:28.112Z,4.37
2018-04-11T14:35:57.153Z,4.73
2018-04-11T14:38:24.612Z,4.10
2018-04-11T14:40:52.065Z,3.77
2018-04-11T14:43:20.037Z,3.97
2018-04-11T14:45:47.520Z,3.87
2018-04-11T14:48:16.116Z,9.00
2018-04-11T14:50:43.983Z,5.10
2018-04-11T14:53:11.442Z,5.07
2018-04-11T14:55:39.060Z,3.30
2018-04-11T14:58:07.325Z,3.80
2018-04-11T15:00:35.033Z,3.87
2018-04-11T15:03:02.804Z,4.07
2018-04-11T15:05:30.260Z,4.27
2018-04-11T15:07:57.718Z,3.93
2018-04-11T15:10:25.285Z,3.80
2018-04-11T15:12:52.696Z,3.37
2018-04-11T15:15:20.340Z,4.27
2018-04-11T15:17:48.564Z,3.77
2018-04-11T15:20:16.017Z,3.90
2018-04-11T15:22:43.947Z,3.63
2018-04-11T15:25:12.164Z,3.43
2018-04-11T15:27:40.653Z,3.67
2018-04-11T15:30:09.924Z,4.07
2018-04-11T15:32:37.824Z,3.77
2018-04-11T15:35:05.762Z,3.67
2018-04-11T15:37:33.233Z,3.50
2018-04-11T15:40:00.718Z,3.63
2018-04-11T15:42:28.179Z,3.53
2018-04-11T15:44:55.765Z,3.37
2018-04-11T15:47:24.045Z,3.87
2018-04-11T15:49:52.262Z,3.63
2018-04-11T15:52:19.747Z,3.67
2018-04-11T15:54:47.304Z,3.57
2018-04-11T15:57:14.765Z,3.60
2018-04-11T15:59:42.837Z,3.87
2018-04-11T16:02:11.012Z,3.93
2018-04-11T16:04:40.563Z,3.53
2018-04-11T16:07:08.772Z,4.33
2018-04-11T16:09:36.234Z,3.83
2018-04-11T16:12:04.602Z,4.03
2018-04-11T16:14:33.445Z,4.13
2018-04-11T16:17:02.017Z,4.07
2018-04-11T16:19:29.461Z,4.40
2018-04-11T16:21:58.799Z,4.00
2018-04-11T16:24:27.373Z,4.17
2018-04-11T16:26:55.810Z,4.33
2018-04-11T16:29:23.260Z,4.90
2018-04-11T16:31:50.953Z,4.77
2018-04-11T16:34:18.396Z,4.80
2018-04-11T16:36:46.302Z,4.67
2018-04-11T16:39:14.526Z,4.40
2018-04-11T16:41:42.056Z,4.60
2018-04-11T16:44:09.517Z,5.03
2018-04-11T16:46:37.000Z,4.83
2018-04-11T16:49:04.457Z,5.50
2018-04-11T16:51:31.909Z,6.50
2018-04-11T16:53:59.372Z,7.13
2018-04-11T16:56:26.824Z,5.80
2018-04-11T16:58:54.856Z,5.53
2018-04-11T17:01:23.916Z,6.30
2018-04-11T17:03:51.371Z,5.90
2018-04-11T17:06:18.829Z,5.87
2018-04-11T17:08:46.297Z,6.40
2018-04-11T17:11:13.942Z,5.67
2018-04-11T17:13:41.454Z,5.03
2018-04-11T17:16:10.182Z,5.60
2018-04-11T17:18:37.938Z,5.23
2018-04-11T17:21:17.345Z,5.20
2018-04-11T17:23:57.452Z,5.93
2018-04-11T17:29:40.887Z,5.20
2018-04-11T17:32:08.673Z,5.27
2018-04-11T17:34:36.209Z,5.73
2018-04-11T17:37:04.125Z,5.60
2018-04-11T17:39:31.581Z,5.57
2018-04-11T17:41:59.162Z,6.27
2018-04-11T17:44:27.409Z,5.50
2018-04-11T17:46:54.870Z,6.30
2018-04-11T17:49:22.323Z,6.30
2018-04-11T17:51:49.789Z,6.87
2018-04-11T17:54:17.241Z,6.77
2018-04-11T17:56:45.176Z,6.93
2018-04-11T17:59:12.638Z,6.93
2018-04-11T18:01:40.140Z,6.53
2018-04-11T18:04:07.621Z,7.90
2018-04-11T18:06:35.293Z,6.60
2018-04-11T18:09:03.531Z,7.73
2018-04-11T18:11:30.992Z,7.47
2018-04-11T18:13:58.464Z,8.00
2018-04-11T18:16:26.693Z,8.20
2018-04-11T18:18:54.159Z,7.87
2018-04-11T18:21:21.609Z,8.97
2018-04-11T18:23:49.065Z,7.77
2018-04-11T18:26:16.526Z,7.77
2018-04-11T18:28:43.984Z,7.47
2018-04-11T18:31:11.456Z,7.90
2018-04-11T18:33:38.933Z,9.10
2018-04-11T18:36:06.385Z,7.57
2018-04-11T18:38:33.857Z,8.90
2018-04-11T18:41:01.321Z,8.57
2018-04-11T18:43:29.077Z,8.53
2018-04-11T18:45:57.307Z,7.77
2018-04-11T18:48:25.214Z,8.30
2018-04-11T18:50:52.886Z,9.17
2018-04-11T18:53:21.110Z,8.40
2018-04-11T18:55:48.569Z,7.90
2018-04-11T18:58:16.030Z,8.13
2018-04-11T19:00:43.534Z,8.13
2018-04-11T19:03:11.013Z,8.53
2018-04-11T19:05:39.692Z,8.40
2018-04-11T19:08:07.434Z,9.43
2018-04-11T19:10:35.100Z,9.07
2018-04-11T19:13:03.529Z,8.33
2018-04-11T19:15:32.368Z,8.50
2018-04-11T19:17:59.945Z,8.83
2018-04-11T19:20:27.443Z,9.70
2018-04-11T19:22:55.193Z,10.47
2018-04-11T19:25:23.417Z,10.90
2018-04-11T19:27:51.429Z,8.43
2018-04-11T19:30:19.651Z,8.30
2018-04-11T19:32:47.140Z,9.03
2018-04-11T19:35:15.866Z,8.93
2018-04-11T19:37:43.325Z,9.53
2018-04-11T19:40:10.806Z,8.77
2018-04-11T19:42:38.300Z,7.90
2018-04-11T19:45:06.185Z,8.63
2018-04-11T19:47:33.733Z,9.00
2018-04-11T19:50:01.256Z,8.80
2018-04-11T19:52:28.665Z,8.90
2018-04-11T19:54:57.052Z,8.67
2018-04-11T19:57:25.711Z,9.13
2018-04-11T19:59:53.168Z,8.70
2018-04-11T20:02:20.637Z,8.23
2018-04-11T20:04:48.105Z,10.00
2018-04-11T20:07:15.562Z,9.27
2018-04-11T20:09:43.018Z,8.37
2018-04-11T20:12:10.865Z,8.87
2018-04-11T20:14:38.333Z,9.10
2018-04-11T20:17:05.797Z,8.83
2018-04-11T20:19:33.273Z,9.60
2018-04-11T20:22:01.517Z,8.40
2018-04-11T20:24:28.968Z,8.63
2018-04-11T20:26:56.429Z,8.67
2018-04-11T20:29:23.988Z,8.47
2018-04-11T20:31:51.450Z,8.03
2018-04-11T20:34:18.953Z,7.93
2018-04-11T20:36:46.938Z,9.10
2018-04-11T20:39:14.389Z,9.40
2018-04-11T20:41:42.105Z,8.07
2018-04-11T20:44:10.338Z,8.37
2018-04-11T20:46:37.794Z,9.27
2018-04-11T20:49:05.245Z,9.40
2018-04-11T20:51:32.697Z,8.83
2018-04-11T20:54:00.485Z,8.53
2018-04-11T20:56:27.961Z,8.97
2018-04-11T20:58:55.499Z,9.27
2018-04-11T21:01:22.949Z,9.17
2018-04-11T21:03:50.443Z,9.97
2018-04-11T21:06:17.980Z,14.20
2018-04-11T21:08:45.432Z,11.10
2018-04-11T21:11:13.413Z,10.57
2018-04-11T21:13:41.696Z,10.30
2018-04-11T21:16:09.164Z,10.77
2018-04-11T21:18:36.649Z,10.13
2018-04-11T21:21:04.130Z,10.33
2018-04-11T21:23:32.417Z,10.57
2018-04-11T21:25:59.887Z,10.93
2018-04-11T21:28:27.336Z,10.50
2018-04-11T21:30:54.936Z,10.63
2018-04-11T21:33:22.406Z,10.60
2018-04-11T21:35:50.898Z,12.30
2018-04-11T21:38:18.422Z,12.37
2018-04-11T21:40:47.185Z,11.37
2018-04-11T21:43:15.405Z,10.70
2018-04-11T21:45:42.888Z,11.77
2018-04-11T21:48:10.457Z,11.50
2018-04-11T21:50:38.715Z,11.77
2018-04-11T21:53:06.189Z,12.33
2018-04-11T21:55:34.421Z,10.80
2018-04-11T21:58:01.965Z,11.40
2018-04-11T22:00:29.416Z,11.40
2018-04-11T22:02:56.949Z,11.70
2018-04-11T22:05:25.170Z,12.20
2018-04-11T22:07:52.869Z,12.60
